Shep, Texas
Current Conditions -  °F | °C
As of 6:58 AM on Tuesday 21 Oct 2014 (Local Time) from KDYS Reporting Station
Clear Clear  
Wind Chill: 56°   Ceiling: Unl
Heat Index: 56°   Visibility: 10mi
Dew Point: 52°   Wind: 1mph
Humidity: 86%   Direction: 170°S
Pressure: 30.08"   Gusts: NA
Location:  32.0181°N, 100.153°W
Report Text: KDYS 211158Z AUTO 17001KT 10SM CLR 13/11 A3008 RMK AO2 SLP157 T01330110 10179 20130 52006
Loading
Personal Weather Stations






























Interactive Weather Map
Tropical Storm Tracking
New forecast layout! Learn more

10-Day Weather Forecast

Advertisements
Track Severe Weather on mobile